sensor_id;sensor_type;location;lat;lon;timestamp;P1;durP1;ratioP1;P2;durP2;ratioP2
67819;SDS011;54618;52.018;5.576;2023-08-31T00:00:42;7.30;;;2.95;;
67819;SDS011;54618;52.018;5.576;2023-08-31T00:03:09;6.57;;;3.10;;
67819;SDS011;54618;52.018;5.576;2023-08-31T00:05:41;8.63;;;3.90;;
67819;SDS011;54618;52.018;5.576;2023-08-31T00:08:08;9.40;;;3.97;;
67819;SDS011;54618;52.018;5.576;2023-08-31T00:10:35;15.38;;;4.97;;
67819;SDS011;54618;52.018;5.576;2023-08-31T00:13:04;9.32;;;4.28;;
67819;SDS011;54618;52.018;5.576;2023-08-31T00:15:33;13.32;;;5.63;;
67819;SDS011;54618;52.018;5.576;2023-08-31T00:18:00;10.57;;;5.30;;
67819;SDS011;54618;52.018;5.576;2023-08-31T00:20:31;11.23;;;5.00;;
67819;SDS011;54618;52.018;5.576;2023-08-31T00:23:01;11.05;;;4.70;;
67819;SDS011;54618;52.018;5.576;2023-08-31T00:25:27;10.65;;;4.63;;
67819;SDS011;54618;52.018;5.576;2023-08-31T00:27:56;9.88;;;4.78;;
67819;SDS011;54618;52.018;5.576;2023-08-31T00:30:22;9.40;;;3.97;;
67819;SDS011;54618;52.018;5.576;2023-08-31T00:32:54;10.75;;;3.20;;
67819;SDS011;54618;52.018;5.576;2023-08-31T00:35:20;8.07;;;3.45;;
67819;SDS011;54618;52.018;5.576;2023-08-31T00:37:45;7.15;;;3.40;;
67819;SDS011;54618;52.018;5.576;2023-08-31T00:40:11;12.82;;;4.32;;
67819;SDS011;54618;52.018;5.576;2023-08-31T00:42:39;12.98;;;5.20;;
67819;SDS011;54618;52.018;5.576;2023-08-31T00:45:05;8.82;;;4.72;;
67819;SDS011;54618;52.018;5.576;2023-08-31T00:47:31;9.75;;;5.30;;
67819;SDS011;54618;52.018;5.576;2023-08-31T00:49:56;8.32;;;4.53;;
67819;SDS011;54618;52.018;5.576;2023-08-31T00:52:30;11.35;;;4.60;;
67819;SDS011;54618;52.018;5.576;2023-08-31T00:54:56;8.25;;;4.40;;
67819;SDS011;54618;52.018;5.576;2023-08-31T00:57:22;8.07;;;4.10;;
67819;SDS011;54618;52.018;5.576;2023-08-31T00:59:47;11.38;;;4.95;;
67819;SDS011;54618;52.018;5.576;2023-08-31T01:02:20;9.95;;;4.40;;
67819;SDS011;54618;52.018;5.576;2023-08-31T01:07:31;10.68;;;4.40;;
67819;SDS011;54618;52.018;5.576;2023-08-31T01:10:04;11.73;;;5.78;;
67819;SDS011;54618;52.018;5.576;2023-08-31T01:15:38;13.73;;;6.25;;
67819;SDS011;54618;52.018;5.576;2023-08-31T01:18:09;12.63;;;6.20;;
67819;SDS011;54618;52.018;5.576;2023-08-31T01:20:42;16.67;;;6.97;;
67819;SDS011;54618;52.018;5.576;2023-08-31T01:23:18;11.45;;;6.00;;
67819;SDS011;54618;52.018;5.576;2023-08-31T01:25:45;12.52;;;6.45;;
67819;SDS011;54618;52.018;5.576;2023-08-31T01:28:13;15.35;;;6.93;;
67819;SDS011;54618;52.018;5.576;2023-08-31T01:30:38;15.40;;;7.20;;
67819;SDS011;54618;52.018;5.576;2023-08-31T01:33:04;15.05;;;7.60;;
67819;SDS011;54618;52.018;5.576;2023-08-31T01:35:30;18.58;;;7.72;;
67819;SDS011;54618;52.018;5.576;2023-08-31T01:38:03;16.80;;;8.27;;
67819;SDS011;54618;52.018;5.576;2023-08-31T01:43:25;18.15;;;8.57;;
67819;SDS011;54618;52.018;5.576;2023-08-31T01:45:55;16.80;;;8.50;;
67819;SDS011;54618;52.018;5.576;2023-08-31T01:48:21;17.23;;;7.95;;
67819;SDS011;54618;52.018;5.576;2023-08-31T01:50:47;15.68;;;8.05;;
67819;SDS011;54618;52.018;5.576;2023-08-31T01:53:12;17.90;;;8.50;;
67819;SDS011;54618;52.018;5.576;2023-08-31T01:55:38;17.30;;;8.80;;
67819;SDS011;54618;52.018;5.576;2023-08-31T01:58:03;13.05;;;7.65;;
67819;SDS011;54618;52.018;5.576;2023-08-31T02:00:29;17.17;;;7.63;;
67819;SDS011;54618;52.018;5.576;2023-08-31T02:02:59;13.70;;;7.03;;
67819;SDS011;54618;52.018;5.576;2023-08-31T02:05:25;15.35;;;7.10;;
67819;SDS011;54618;52.018;5.576;2023-08-31T02:07:51;15.48;;;6.70;;
67819;SDS011;54618;52.018;5.576;2023-08-31T02:10:16;11.40;;;6.45;;
67819;SDS011;54618;52.018;5.576;2023-08-31T02:12:42;13.85;;;7.00;;
67819;SDS011;54618;52.018;5.576;2023-08-31T02:15:07;15.48;;;7.65;;
67819;SDS011;54618;52.018;5.576;2023-08-31T02:17:34;12.95;;;6.47;;
67819;SDS011;54618;52.018;5.576;2023-08-31T02:20:00;11.85;;;6.68;;
67819;SDS011;54618;52.018;5.576;2023-08-31T02:22:31;15.05;;;6.97;;
67819;SDS011;54618;52.018;5.576;2023-08-31T02:24:59;12.77;;;7.20;;
67819;SDS011;54618;52.018;5.576;2023-08-31T02:27:26;13.43;;;7.65;;
67819;SDS011;54618;52.018;5.576;2023-08-31T02:29:51;16.20;;;7.50;;
67819;SDS011;54618;52.018;5.576;2023-08-31T02:32:17;15.00;;;7.72;;
67819;SDS011;54618;52.018;5.576;2023-08-31T02:34:42;17.83;;;7.90;;
67819;SDS011;54618;52.018;5.576;2023-08-31T02:37:08;12.50;;;6.82;;
67819;SDS011;54618;52.018;5.576;2023-08-31T02:39:33;12.43;;;6.22;;
67819;SDS011;54618;52.018;5.576;2023-08-31T02:41:59;10.90;;;6.93;;
67819;SDS011;54618;52.018;5.576;2023-08-31T02:44:25;14.00;;;7.45;;
67819;SDS011;54618;52.018;5.576;2023-08-31T02:46:50;14.25;;;7.63;;
67819;SDS011;54618;52.018;5.576;2023-08-31T02:49:16;15.25;;;7.57;;
67819;SDS011;54618;52.018;5.576;2023-08-31T02:51:41;14.80;;;8.18;;
67819;SDS011;54618;52.018;5.576;2023-08-31T02:54:07;13.85;;;7.38;;
67819;SDS011;54618;52.018;5.576;2023-08-31T02:56:32;12.20;;;6.78;;
67819;SDS011;54618;52.018;5.576;2023-08-31T02:59:01;13.77;;;7.10;;
67819;SDS011;54618;52.018;5.576;2023-08-31T03:01:26;14.30;;;7.15;;
67819;SDS011;54618;52.018;5.576;2023-08-31T03:03:54;13.57;;;8.00;;
67819;SDS011;54618;52.018;5.576;2023-08-31T03:06:20;12.82;;;7.32;;
67819;SDS011;54618;52.018;5.576;2023-08-31T03:08:45;11.38;;;7.00;;
67819;SDS011;54618;52.018;5.576;2023-08-31T03:11:11;14.77;;;7.28;;
67819;SDS011;54618;52.018;5.576;2023-08-31T03:13:39;12.60;;;6.35;;
67819;SDS011;54618;52.018;5.576;2023-08-31T03:16:04;12.15;;;6.00;;
67819;SDS011;54618;52.018;5.576;2023-08-31T03:18:30;12.57;;;6.05;;
67819;SDS011;54618;52.018;5.576;2023-08-31T03:20:56;12.20;;;6.18;;
67819;SDS011;54618;52.018;5.576;2023-08-31T03:23:21;9.75;;;5.30;;
67819;SDS011;54618;52.018;5.576;2023-08-31T03:25:47;10.52;;;5.20;;
67819;SDS011;54618;52.018;5.576;2023-08-31T03:28:12;10.15;;;5.22;;
67819;SDS011;54618;52.018;5.576;2023-08-31T03:30:38;8.25;;;4.75;;
67819;SDS011;54618;52.018;5.576;2023-08-31T03:33:04;12.35;;;4.78;;
67819;SDS011;54618;52.018;5.576;2023-08-31T03:35:31;9.85;;;5.22;;
67819;SDS011;54618;52.018;5.576;2023-08-31T03:37:57;10.35;;;5.00;;
67819;SDS011;54618;52.018;5.576;2023-08-31T03:40:25;9.13;;;5.43;;
67819;SDS011;54618;52.018;5.576;2023-08-31T03:42:51;11.60;;;5.97;;
67819;SDS011;54618;52.018;5.576;2023-08-31T03:45:18;11.25;;;6.18;;
67819;SDS011;54618;52.018;5.576;2023-08-31T03:47:44;11.65;;;5.93;;
67819;SDS011;54618;52.018;5.576;2023-08-31T03:50:10;15.18;;;6.60;;
67819;SDS011;54618;52.018;5.576;2023-08-31T03:52:35;13.55;;;6.38;;
67819;SDS011;54618;52.018;5.576;2023-08-31T03:55:01;12.95;;;6.13;;
67819;SDS011;54618;52.018;5.576;2023-08-31T03:57:26;11.95;;;6.63;;
67819;SDS011;54618;52.018;5.576;2023-08-31T03:59:52;13.25;;;6.90;;
67819;SDS011;54618;52.018;5.576;2023-08-31T04:02:17;13.70;;;7.13;;
67819;SDS011;54618;52.018;5.576;2023-08-31T04:04:43;13.60;;;6.78;;
67819;SDS011;54618;52.018;5.576;2023-08-31T04:07:08;13.07;;;6.65;;
67819;SDS011;54618;52.018;5.576;2023-08-31T04:09:34;14.38;;;6.80;;
67819;SDS011;54618;52.018;5.576;2023-08-31T04:12:00;14.23;;;7.05;;
67819;SDS011;54618;52.018;5.576;2023-08-31T04:14:26;15.95;;;6.85;;
67819;SDS011;54618;52.018;5.576;2023-08-31T04:16:52;12.95;;;7.20;;
67819;SDS011;54618;52.018;5.576;2023-08-31T04:19:18;13.00;;;6.97;;
67819;SDS011;54618;52.018;5.576;2023-08-31T04:21:43;15.80;;;6.90;;
67819;SDS011;54618;52.018;5.576;2023-08-31T04:24:09;10.73;;;6.80;;
67819;SDS011;54618;52.018;5.576;2023-08-31T04:26:35;13.32;;;7.65;;
67819;SDS011;54618;52.018;5.576;2023-08-31T04:29:01;12.68;;;7.63;;
67819;SDS011;54618;52.018;5.576;2023-08-31T04:31:29;15.18;;;8.07;;
67819;SDS011;54618;52.018;5.576;2023-08-31T04:33:54;13.75;;;7.50;;
67819;SDS011;54618;52.018;5.576;2023-08-31T04:36:20;14.98;;;7.97;;
67819;SDS011;54618;52.018;5.576;2023-08-31T04:38:46;13.18;;;7.53;;
67819;SDS011;54618;52.018;5.576;2023-08-31T04:41:14;15.07;;;7.78;;
67819;SDS011;54618;52.018;5.576;2023-08-31T04:43:40;14.55;;;8.55;;
67819;SDS011;54618;52.018;5.576;2023-08-31T04:46:05;15.65;;;8.90;;
67819;SDS011;54618;52.018;5.576;2023-08-31T04:48:31;16.45;;;8.90;;
67819;SDS011;54618;52.018;5.576;2023-08-31T04:50:57;13.30;;;7.97;;
67819;SDS011;54618;52.018;5.576;2023-08-31T04:53:25;16.25;;;9.10;;
67819;SDS011;54618;52.018;5.576;2023-08-31T04:55:51;16.95;;;8.95;;
67819;SDS011;54618;52.018;5.576;2023-08-31T04:58:17;17.02;;;9.88;;
67819;SDS011;54618;52.018;5.576;2023-08-31T05:00:42;16.85;;;9.88;;
67819;SDS011;54618;52.018;5.576;2023-08-31T05:03:09;17.05;;;9.30;;
67819;SDS011;54618;52.018;5.576;2023-08-31T05:05:35;16.17;;;9.63;;
67819;SDS011;54618;52.018;5.576;2023-08-31T05:08:00;18.63;;;9.60;;
67819;SDS011;54618;52.018;5.576;2023-08-31T05:10:30;17.60;;;10.70;;
67819;SDS011;54618;52.018;5.576;2023-08-31T05:12:56;15.95;;;10.65;;
67819;SDS011;54618;52.018;5.576;2023-08-31T05:15:21;16.42;;;10.25;;
67819;SDS011;54618;52.018;5.576;2023-08-31T05:17:48;16.67;;;10.48;;
67819;SDS011;54618;52.018;5.576;2023-08-31T05:20:13;18.25;;;10.68;;
67819;SDS011;54618;52.018;5.576;2023-08-31T05:22:39;17.23;;;10.50;;
67819;SDS011;54618;52.018;5.576;2023-08-31T05:25:05;19.02;;;10.63;;
67819;SDS011;54618;52.018;5.576;2023-08-31T05:27:31;23.55;;;11.10;;
67819;SDS011;54618;52.018;5.576;2023-08-31T05:29:56;18.55;;;10.60;;
67819;SDS011;54618;52.018;5.576;2023-08-31T05:32:22;24.42;;;10.35;;
67819;SDS011;54618;52.018;5.576;2023-08-31T05:34:47;18.70;;;11.57;;
67819;SDS011;54618;52.018;5.576;2023-08-31T05:37:13;22.35;;;13.02;;
67819;SDS011;54618;52.018;5.576;2023-08-31T05:39:39;21.58;;;11.68;;
67819;SDS011;54618;52.018;5.576;2023-08-31T05:42:05;18.52;;;11.98;;
67819;SDS011;54618;52.018;5.576;2023-08-31T05:44:30;22.05;;;12.57;;
67819;SDS011;54618;52.018;5.576;2023-08-31T05:46:56;19.58;;;12.38;;
67819;SDS011;54618;52.018;5.576;2023-08-31T05:49:22;21.35;;;12.57;;
67819;SDS011;54618;52.018;5.576;2023-08-31T05:51:48;19.50;;;11.55;;
67819;SDS011;54618;52.018;5.576;2023-08-31T05:54:14;21.75;;;12.52;;
67819;SDS011;54618;52.018;5.576;2023-08-31T05:56:39;20.70;;;11.68;;
67819;SDS011;54618;52.018;5.576;2023-08-31T05:59:05;16.30;;;11.00;;
67819;SDS011;54618;52.018;5.576;2023-08-31T06:01:31;15.32;;;9.55;;
67819;SDS011;54618;52.018;5.576;2023-08-31T06:03:57;14.20;;;9.55;;
67819;SDS011;54618;52.018;5.576;2023-08-31T06:06:24;18.20;;;10.43;;
67819;SDS011;54618;52.018;5.576;2023-08-31T06:08:50;17.75;;;10.57;;
67819;SDS011;54618;52.018;5.576;2023-08-31T06:11:15;18.92;;;12.27;;
67819;SDS011;54618;52.018;5.576;2023-08-31T06:13:41;24.55;;;12.95;;
67819;SDS011;54618;52.018;5.576;2023-08-31T06:16:06;19.17;;;11.70;;
67819;SDS011;54618;52.018;5.576;2023-08-31T06:18:32;19.58;;;12.30;;
67819;SDS011;54618;52.018;5.576;2023-08-31T06:20:58;16.38;;;11.10;;
67819;SDS011;54618;52.018;5.576;2023-08-31T06:23:26;16.50;;;10.32;;
67819;SDS011;54618;52.018;5.576;2023-08-31T06:25:52;18.77;;;10.65;;
67819;SDS011;54618;52.018;5.576;2023-08-31T06:28:17;17.85;;;9.50;;
67819;SDS011;54618;52.018;5.576;2023-08-31T06:30:43;17.00;;;10.45;;
67819;SDS011;54618;52.018;5.576;2023-08-31T06:33:12;16.90;;;9.75;;
67819;SDS011;54618;52.018;5.576;2023-08-31T06:35:42;14.98;;;10.50;;
67819;SDS011;54618;52.018;5.576;2023-08-31T06:38:10;16.58;;;10.38;;
67819;SDS011;54618;52.018;5.576;2023-08-31T06:40:36;14.98;;;10.40;;
67819;SDS011;54618;52.018;5.576;2023-08-31T06:43:01;16.35;;;10.38;;
67819;SDS011;54618;52.018;5.576;2023-08-31T06:45:31;21.70;;;12.00;;
67819;SDS011;54618;52.018;5.576;2023-08-31T06:47:57;21.40;;;11.45;;
67819;SDS011;54618;52.018;5.576;2023-08-31T06:50:22;20.20;;;11.27;;
67819;SDS011;54618;52.018;5.576;2023-08-31T06:52:48;17.60;;;10.90;;
67819;SDS011;54618;52.018;5.576;2023-08-31T06:55:13;18.75;;;10.18;;
67819;SDS011;54618;52.018;5.576;2023-08-31T06:57:39;14.40;;;8.98;;
67819;SDS011;54618;52.018;5.576;2023-08-31T07:00:05;16.42;;;9.35;;
67819;SDS011;54618;52.018;5.576;2023-08-31T07:02:33;17.15;;;9.13;;
67819;SDS011;54618;52.018;5.576;2023-08-31T07:05:02;16.08;;;8.80;;
67819;SDS011;54618;52.018;5.576;2023-08-31T07:07:32;16.77;;;9.75;;
67819;SDS011;54618;52.018;5.576;2023-08-31T07:09:57;17.25;;;9.57;;
67819;SDS011;54618;52.018;5.576;2023-08-31T07:12:23;17.75;;;9.23;;
67819;SDS011;54618;52.018;5.576;2023-08-31T07:14:48;16.20;;;9.50;;
67819;SDS011;54618;52.018;5.576;2023-08-31T07:17:17;15.68;;;9.18;;
67819;SDS011;54618;52.018;5.576;2023-08-31T07:19:44;17.65;;;10.25;;
67819;SDS011;54618;52.018;5.576;2023-08-31T07:22:09;18.20;;;9.45;;
67819;SDS011;54618;52.018;5.576;2023-08-31T07:24:35;16.27;;;9.88;;
67819;SDS011;54618;52.018;5.576;2023-08-31T07:27:04;17.42;;;8.63;;
67819;SDS011;54618;52.018;5.576;2023-08-31T07:29:30;14.88;;;8.50;;
67819;SDS011;54618;52.018;5.576;2023-08-31T07:31:56;16.08;;;8.50;;
67819;SDS011;54618;52.018;5.576;2023-08-31T07:34:22;18.08;;;9.68;;
67819;SDS011;54618;52.018;5.576;2023-08-31T07:36:48;15.85;;;9.05;;
67819;SDS011;54618;52.018;5.576;2023-08-31T07:39:14;14.07;;;8.60;;
67819;SDS011;54618;52.018;5.576;2023-08-31T07:41:42;12.90;;;8.07;;
67819;SDS011;54618;52.018;5.576;2023-08-31T07:44:08;13.90;;;7.38;;
67819;SDS011;54618;52.018;5.576;2023-08-31T07:46:34;11.70;;;7.95;;
67819;SDS011;54618;52.018;5.576;2023-08-31T07:49:02;14.65;;;8.45;;
67819;SDS011;54618;52.018;5.576;2023-08-31T07:51:34;17.35;;;9.07;;
67819;SDS011;54618;52.018;5.576;2023-08-31T07:54:00;13.05;;;8.30;;
67819;SDS011;54618;52.018;5.576;2023-08-31T07:56:33;15.40;;;8.43;;
67819;SDS011;54618;52.018;5.576;2023-08-31T07:59:05;18.30;;;8.48;;
67819;SDS011;54618;52.018;5.576;2023-08-31T08:01:33;15.50;;;8.23;;
67819;SDS011;54618;52.018;5.576;2023-08-31T08:03:59;16.67;;;8.10;;
67819;SDS011;54618;52.018;5.576;2023-08-31T08:06:25;15.40;;;8.25;;
67819;SDS011;54618;52.018;5.576;2023-08-31T08:08:51;12.93;;;7.95;;
67819;SDS011;54618;52.018;5.576;2023-08-31T08:11:16;13.90;;;8.13;;
67819;SDS011;54618;52.018;5.576;2023-08-31T08:13:42;15.40;;;8.25;;
67819;SDS011;54618;52.018;5.576;2023-08-31T08:16:08;11.23;;;6.95;;
67819;SDS011;54618;52.018;5.576;2023-08-31T08:18:34;14.38;;;7.60;;
67819;SDS011;54618;52.018;5.576;2023-08-31T08:20:59;15.00;;;7.00;;
67819;SDS011;54618;52.018;5.576;2023-08-31T08:23:25;12.32;;;7.97;;
67819;SDS011;54618;52.018;5.576;2023-08-31T08:25:59;12.63;;;7.78;;
67819;SDS011;54618;52.018;5.576;2023-08-31T08:28:33;15.13;;;8.30;;
67819;SDS011;54618;52.018;5.576;2023-08-31T08:31:02;14.77;;;7.50;;
67819;SDS011;54618;52.018;5.576;2023-08-31T08:33:38;13.57;;;7.65;;
67819;SDS011;54618;52.018;5.576;2023-08-31T08:36:03;19.95;;;7.32;;
67819;SDS011;54618;52.018;5.576;2023-08-31T08:38:32;12.05;;;6.65;;
67819;SDS011;54618;52.018;5.576;2023-08-31T08:41:03;11.63;;;7.00;;
67819;SDS011;54618;52.018;5.576;2023-08-31T08:43:32;14.13;;;7.95;;
67819;SDS011;54618;52.018;5.576;2023-08-31T08:46:03;13.73;;;7.03;;
67819;SDS011;54618;52.018;5.576;2023-08-31T08:48:30;11.60;;;6.93;;
67819;SDS011;54618;52.018;5.576;2023-08-31T08:51:04;14.43;;;5.80;;
67819;SDS011;54618;52.018;5.576;2023-08-31T08:53:30;13.93;;;6.88;;
67819;SDS011;54618;52.018;5.576;2023-08-31T08:55:56;12.55;;;6.80;;
67819;SDS011;54618;52.018;5.576;2023-08-31T08:58:22;11.95;;;6.93;;
67819;SDS011;54618;52.018;5.576;2023-08-31T09:00:48;10.27;;;6.20;;
67819;SDS011;54618;52.018;5.576;2023-08-31T09:03:14;9.27;;;5.53;;
67819;SDS011;54618;52.018;5.576;2023-08-31T09:05:42;9.45;;;5.30;;
67819;SDS011;54618;52.018;5.576;2023-08-31T09:08:08;10.65;;;5.65;;
67819;SDS011;54618;52.018;5.576;2023-08-31T09:10:38;7.72;;;4.60;;
67819;SDS011;54618;52.018;5.576;2023-08-31T09:13:06;7.35;;;4.18;;
67819;SDS011;54618;52.018;5.576;2023-08-31T09:15:39;7.35;;;3.50;;
67819;SDS011;54618;52.018;5.576;2023-08-31T09:18:07;8.75;;;3.90;;
67819;SDS011;54618;52.018;5.576;2023-08-31T09:20:46;7.70;;;4.40;;
67819;SDS011;54618;52.018;5.576;2023-08-31T09:23:13;8.00;;;3.03;;
67819;SDS011;54618;52.018;5.576;2023-08-31T09:25:43;5.53;;;3.05;;
67819;SDS011;54618;52.018;5.576;2023-08-31T09:28:10;5.15;;;2.47;;
67819;SDS011;54618;52.018;5.576;2023-08-31T09:30:39;3.90;;;2.43;;
67819;SDS011;54618;52.018;5.576;2023-08-31T09:33:09;7.10;;;3.17;;
67819;SDS011;54618;52.018;5.576;2023-08-31T09:35:38;5.07;;;2.05;;
67819;SDS011;54618;52.018;5.576;2023-08-31T09:38:07;7.18;;;2.35;;
67819;SDS011;54618;52.018;5.576;2023-08-31T09:40:33;4.25;;;2.20;;
67819;SDS011;54618;52.018;5.576;2023-08-31T09:43:02;5.20;;;2.22;;
67819;SDS011;54618;52.018;5.576;2023-08-31T09:45:31;5.38;;;2.40;;
67819;SDS011;54618;52.018;5.576;2023-08-31T09:48:02;4.72;;;2.30;;
67819;SDS011;54618;52.018;5.576;2023-08-31T09:50:30;5.20;;;2.15;;
67819;SDS011;54618;52.018;5.576;2023-08-31T09:53:00;7.43;;;2.67;;
67819;SDS011;54618;52.018;5.576;2023-08-31T09:55:32;8.13;;;2.70;;
67819;SDS011;54618;52.018;5.576;2023-08-31T09:57:58;7.07;;;2.40;;
67819;SDS011;54618;52.018;5.576;2023-08-31T10:00:31;4.68;;;2.15;;
67819;SDS011;54618;52.018;5.576;2023-08-31T10:02:58;5.68;;;1.90;;
67819;SDS011;54618;52.018;5.576;2023-08-31T10:05:26;3.78;;;1.50;;
67819;SDS011;54618;52.018;5.576;2023-08-31T10:07:52;3.90;;;1.40;;
67819;SDS011;54618;52.018;5.576;2023-08-31T10:10:19;3.78;;;1.63;;
67819;SDS011;54618;52.018;5.576;2023-08-31T10:12:50;5.05;;;1.30;;
67819;SDS011;54618;52.018;5.576;2023-08-31T10:15:17;3.30;;;1.00;;
67819;SDS011;54618;52.018;5.576;2023-08-31T10:17:44;3.22;;;0.93;;
67819;SDS011;54618;52.018;5.576;2023-08-31T10:20:13;3.35;;;0.93;;
67819;SDS011;54618;52.018;5.576;2023-08-31T10:22:41;3.10;;;1.08;;
67819;SDS011;54618;52.018;5.576;2023-08-31T10:25:07;2.45;;;0.82;;
67819;SDS011;54618;52.018;5.576;2023-08-31T10:27:41;3.60;;;0.68;;
67819;SDS011;54618;52.018;5.576;2023-08-31T10:35:41;5.75;;;1.08;;
67819;SDS011;54618;52.018;5.576;2023-08-31T10:38:14;3.05;;;0.60;;
67819;SDS011;54618;52.018;5.576;2023-08-31T10:40:40;4.53;;;0.90;;
67819;SDS011;54618;52.018;5.576;2023-08-31T10:43:15;1.77;;;0.60;;
67819;SDS011;54618;52.018;5.576;2023-08-31T10:45:44;2.80;;;0.93;;
67819;SDS011;54618;52.018;5.576;2023-08-31T10:48:11;2.10;;;0.60;;
67819;SDS011;54618;52.018;5.576;2023-08-31T10:50:42;4.63;;;0.77;;
67819;SDS011;54618;52.018;5.576;2023-08-31T10:53:09;3.47;;;0.80;;
67819;SDS011;54618;52.018;5.576;2023-08-31T10:55:52;2.47;;;0.70;;
67819;SDS011;54618;52.018;5.576;2023-08-31T10:58:18;2.50;;;0.70;;
67819;SDS011;54618;52.018;5.576;2023-08-31T11:00:53;2.58;;;0.63;;
67819;SDS011;54618;52.018;5.576;2023-08-31T11:03:21;3.15;;;0.60;;
67819;SDS011;54618;52.018;5.576;2023-08-31T11:05:53;2.58;;;0.60;;
67819;SDS011;54618;52.018;5.576;2023-08-31T11:08:25;3.05;;;0.70;;
67819;SDS011;54618;52.018;5.576;2023-08-31T11:10:51;1.65;;;0.60;;
67819;SDS011;54618;52.018;5.576;2023-08-31T11:13:20;2.75;;;0.68;;
67819;SDS011;54618;52.018;5.576;2023-08-31T11:15:48;1.83;;;0.57;;
67819;SDS011;54618;52.018;5.576;2023-08-31T11:18:14;2.63;;;0.60;;
67819;SDS011;54618;52.018;5.576;2023-08-31T11:20:42;7.15;;;1.00;;
67819;SDS011;54618;52.018;5.576;2023-08-31T11:23:09;5.88;;;0.85;;
67819;SDS011;54618;52.018;5.576;2023-08-31T11:25:35;3.50;;;0.60;;
67819;SDS011;54618;52.018;5.576;2023-08-31T11:28:02;1.58;;;0.68;;
67819;SDS011;54618;52.018;5.576;2023-08-31T11:30:30;4.75;;;0.90;;
67819;SDS011;54618;52.018;5.576;2023-08-31T11:32:56;2.95;;;0.70;;
67819;SDS011;54618;52.018;5.576;2023-08-31T11:35:30;2.40;;;0.60;;
67819;SDS011;54618;52.018;5.576;2023-08-31T11:38:01;1.55;;;0.65;;
67819;SDS011;54618;52.018;5.576;2023-08-31T11:40:28;3.08;;;0.70;;
67819;SDS011;54618;52.018;5.576;2023-08-31T11:42:57;2.08;;;0.60;;
67819;SDS011;54618;52.018;5.576;2023-08-31T11:45:31;1.77;;;0.60;;
67819;SDS011;54618;52.018;5.576;2023-08-31T11:47:57;2.90;;;0.60;;
67819;SDS011;54618;52.018;5.576;2023-08-31T11:52:54;2.38;;;0.60;;
67819;SDS011;54618;52.018;5.576;2023-08-31T11:55:20;1.38;;;0.60;;
67819;SDS011;54618;52.018;5.576;2023-08-31T11:57:52;3.97;;;0.63;;
67819;SDS011;54618;52.018;5.576;2023-08-31T12:00:22;2.08;;;0.60;;
67819;SDS011;54618;52.018;5.576;2023-08-31T12:05:26;1.75;;;0.60;;
67819;SDS011;54618;52.018;5.576;2023-08-31T12:07:53;3.45;;;0.57;;
67819;SDS011;54618;52.018;5.576;2023-08-31T12:10:19;2.35;;;0.85;;
67819;SDS011;54618;52.018;5.576;2023-08-31T12:12:45;2.78;;;0.70;;
67819;SDS011;54618;52.018;5.576;2023-08-31T12:15:11;2.15;;;0.60;;
67819;SDS011;54618;52.018;5.576;2023-08-31T12:17:37;2.13;;;0.52;;
67819;SDS011;54618;52.018;5.576;2023-08-31T12:20:10;3.53;;;0.70;;
67819;SDS011;54618;52.018;5.576;2023-08-31T12:22:37;2.15;;;0.65;;
67819;SDS011;54618;52.018;5.576;2023-08-31T12:25:03;4.20;;;0.70;;
67819;SDS011;54618;52.018;5.576;2023-08-31T12:27:31;4.18;;;0.73;;
67819;SDS011;54618;52.018;5.576;2023-08-31T12:29:57;2.92;;;0.80;;
67819;SDS011;54618;52.018;5.576;2023-08-31T12:32:23;2.70;;;0.70;;
67819;SDS011;54618;52.018;5.576;2023-08-31T12:34:48;1.40;;;0.50;;
67819;SDS011;54618;52.018;5.576;2023-08-31T12:37:14;3.13;;;0.70;;
67819;SDS011;54618;52.018;5.576;2023-08-31T12:39:39;1.75;;;0.68;;
67819;SDS011;54618;52.018;5.576;2023-08-31T12:42:07;1.48;;;0.60;;
67819;SDS011;54618;52.018;5.576;2023-08-31T12:44:32;2.53;;;0.70;;
67819;SDS011;54618;52.018;5.576;2023-08-31T12:46:58;3.83;;;0.77;;
67819;SDS011;54618;52.018;5.576;2023-08-31T12:49:32;1.92;;;0.70;;
67819;SDS011;54618;52.018;5.576;2023-08-31T12:51:58;1.88;;;0.70;;
67819;SDS011;54618;52.018;5.576;2023-08-31T12:54:26;3.20;;;0.75;;
67819;SDS011;54618;52.018;5.576;2023-08-31T12:56:52;1.77;;;0.70;;
67819;SDS011;54618;52.018;5.576;2023-08-31T12:59:17;2.13;;;0.70;;
67819;SDS011;54618;52.018;5.576;2023-08-31T13:01:43;3.03;;;0.65;;
67819;SDS011;54618;52.018;5.576;2023-08-31T13:04:08;1.67;;;0.50;;
67819;SDS011;54618;52.018;5.576;2023-08-31T13:06:34;3.58;;;0.80;;
67819;SDS011;54618;52.018;5.576;2023-08-31T13:09:02;2.30;;;1.13;;
67819;SDS011;54618;52.018;5.576;2023-08-31T13:11:30;2.55;;;0.60;;
67819;SDS011;54618;52.018;5.576;2023-08-31T13:13:56;2.15;;;0.70;;
67819;SDS011;54618;52.018;5.576;2023-08-31T13:16:21;3.22;;;0.70;;
67819;SDS011;54618;52.018;5.576;2023-08-31T13:18:49;3.15;;;0.80;;
67819;SDS011;54618;52.018;5.576;2023-08-31T13:21:15;1.63;;;0.68;;
67819;SDS011;54618;52.018;5.576;2023-08-31T13:23:40;1.83;;;0.65;;
67819;SDS011;54618;52.018;5.576;2023-08-31T13:26:08;2.80;;;0.70;;
67819;SDS011;54618;52.018;5.576;2023-08-31T13:28:33;2.15;;;0.65;;
67819;SDS011;54618;52.018;5.576;2023-08-31T13:30:59;2.97;;;0.80;;
67819;SDS011;54618;52.018;5.576;2023-08-31T13:33:28;4.75;;;0.70;;
67819;SDS011;54618;52.018;5.576;2023-08-31T13:35:56;4.00;;;1.10;;
67819;SDS011;54618;52.018;5.576;2023-08-31T13:38:23;2.92;;;0.68;;
67819;SDS011;54618;52.018;5.576;2023-08-31T13:40:53;1.98;;;0.70;;
67819;SDS011;54618;52.018;5.576;2023-08-31T13:43:22;3.47;;;0.70;;
67819;SDS011;54618;52.018;5.576;2023-08-31T13:45:49;3.13;;;0.70;;
67819;SDS011;54618;52.018;5.576;2023-08-31T13:48:14;3.35;;;0.80;;
67819;SDS011;54618;52.018;5.576;2023-08-31T13:50:40;1.85;;;0.77;;
67819;SDS011;54618;52.018;5.576;2023-08-31T13:53:06;1.80;;;0.60;;
67819;SDS011;54618;52.018;5.576;2023-08-31T13:55:31;1.60;;;0.63;;
67819;SDS011;54618;52.018;5.576;2023-08-31T13:58:03;3.25;;;0.70;;
67819;SDS011;54618;52.018;5.576;2023-08-31T14:00:31;3.08;;;0.70;;
67819;SDS011;54618;52.018;5.576;2023-08-31T14:02:57;2.33;;;0.80;;
67819;SDS011;54618;52.018;5.576;2023-08-31T14:05:27;4.38;;;0.80;;
67819;SDS011;54618;52.018;5.576;2023-08-31T14:08:01;3.28;;;0.82;;
67819;SDS011;54618;52.018;5.576;2023-08-31T14:10:32;3.95;;;0.80;;
67819;SDS011;54618;52.018;5.576;2023-08-31T14:13:00;2.53;;;0.90;;
67819;SDS011;54618;52.018;5.576;2023-08-31T14:15:26;2.53;;;0.73;;
67819;SDS011;54618;52.018;5.576;2023-08-31T14:17:52;3.28;;;0.85;;
67819;SDS011;54618;52.018;5.576;2023-08-31T14:20:18;2.67;;;0.70;;
67819;SDS011;54618;52.018;5.576;2023-08-31T14:22:44;4.25;;;1.00;;
67819;SDS011;54618;52.018;5.576;2023-08-31T14:25:11;2.78;;;0.60;;
67819;SDS011;54618;52.018;5.576;2023-08-31T14:27:46;3.33;;;0.80;;
67819;SDS011;54618;52.018;5.576;2023-08-31T14:30:13;2.45;;;0.88;;
67819;SDS011;54618;52.018;5.576;2023-08-31T14:32:39;2.17;;;0.68;;
67819;SDS011;54618;52.018;5.576;2023-08-31T14:35:04;1.77;;;0.60;;
67819;SDS011;54618;52.018;5.576;2023-08-31T14:37:31;1.98;;;0.70;;
67819;SDS011;54618;52.018;5.576;2023-08-31T14:39:57;2.38;;;0.70;;
67819;SDS011;54618;52.018;5.576;2023-08-31T14:42:23;3.42;;;0.98;;
67819;SDS011;54618;52.018;5.576;2023-08-31T14:44:48;3.97;;;1.00;;
67819;SDS011;54618;52.018;5.576;2023-08-31T14:47:14;3.33;;;0.95;;
67819;SDS011;54618;52.018;5.576;2023-08-31T14:49:39;3.88;;;0.90;;
67819;SDS011;54618;52.018;5.576;2023-08-31T14:52:05;2.92;;;0.90;;
67819;SDS011;54618;52.018;5.576;2023-08-31T14:54:31;3.05;;;0.90;;
67819;SDS011;54618;52.018;5.576;2023-08-31T14:56:58;4.00;;;0.90;;